createdAt,value
2022-11-04T00:00:18.746Z,100137.59
2022-11-04T00:01:27.904Z,100143.08
2022-11-04T00:02:40.256Z,100153.05
2022-11-04T00:03:50.905Z,100144.98
2022-11-04T00:06:15.557Z,100135.25
2022-11-04T00:07:43.523Z,100148.34
2022-11-04T00:08:54.425Z,100142.13
2022-11-04T00:10:04.280Z,100144.70
2022-11-04T00:12:45.981Z,100132.13
2022-11-04T00:13:56.251Z,100138.27
2022-11-04T00:16:58.206Z,100135.03
2022-11-04T00:19:22.911Z,100131.50
2022-11-04T00:22:50.154Z,100125.35
2022-11-04T00:25:53.358Z,100130.39
2022-11-04T00:28:43.674Z,100131.38
2022-11-04T00:29:53.076Z,100120.52
2022-11-04T00:31:23.034Z,100125.00
2022-11-04T00:32:51.761Z,100126.84
2022-11-04T00:35:19.684Z,100120.08
2022-11-04T00:37:45.035Z,100111.58
2022-11-04T00:38:53.842Z,100120.34
2022-11-04T00:40:03.685Z,100116.81
2022-11-04T00:41:29.292Z,100119.39
2022-11-04T00:43:59.172Z,100114.92
2022-11-04T00:45:09.256Z,100119.00
2022-11-04T00:46:23.717Z,100119.30
2022-11-04T00:48:50.224Z,100105.30
2022-11-04T00:51:21.896Z,100105.37
2022-11-04T00:52:30.861Z,100116.47
2022-11-04T00:53:40.328Z,100114.52
2022-11-04T00:54:49.546Z,100115.28
2022-11-04T00:57:16.284Z,100113.11
2022-11-04T00:59:40.640Z,100099.89
2022-11-04T01:02:04.386Z,100103.77
2022-11-04T01:03:13.601Z,100107.23
2022-11-04T01:05:38.225Z,100100.34
2022-11-04T01:06:47.778Z,100110.99
2022-11-04T01:07:57.615Z,100106.58
2022-11-04T01:09:08.556Z,100112.91
2022-11-04T01:10:19.424Z,100113.13
2022-11-04T01:11:31.053Z,100104.22
2022-11-04T01:12:40.225Z,100102.50
2022-11-04T01:15:08.120Z,100100.98
2022-11-04T01:17:33.920Z,100102.05
2022-11-04T01:18:43.156Z,100100.22
2022-11-04T01:19:53.510Z,100100.33
2022-11-04T01:21:06.282Z,100103.89
2022-11-04T01:23:31.498Z,100100.66
2022-11-04T01:24:40.692Z,100101.40
2022-11-04T01:25:56.655Z,100097.86
2022-11-04T01:28:26.963Z,100093.55
2022-11-04T01:30:52.676Z,100091.20
2022-11-04T01:32:02.028Z,100094.63
2022-11-04T01:33:10.738Z,100090.25
2022-11-04T01:34:20.405Z,100090.25
2022-11-04T01:35:29.515Z,100098.30
2022-11-04T01:37:54.932Z,100087.78
2022-11-04T01:39:05.895Z,100093.78
2022-11-04T01:40:15.944Z,100091.09
2022-11-04T01:42:44.432Z,100086.27
2022-11-04T01:43:59.596Z,100089.80
2022-11-04T01:45:14.428Z,100083.66
2022-11-04T01:46:46.387Z,100086.45
2022-11-04T01:49:33.298Z,100086.89
2022-11-04T01:50:47.118Z,100086.00
2022-11-04T01:53:29.705Z,100083.88
2022-11-04T01:56:01.237Z,100084.54
2022-11-04T01:57:15.118Z,100094.41
2022-11-04T01:58:28.811Z,100090.02
2022-11-04T01:59:41.516Z,100093.66
2022-11-04T02:02:07.948Z,100087.84
2022-11-04T02:04:36.957Z,100086.54
2022-11-04T02:05:47.186Z,100091.16
2022-11-04T02:08:20.995Z,100090.05
2022-11-04T02:09:33.130Z,100094.91
2022-11-04T02:12:28.797Z,100082.78
2022-11-04T02:13:38.123Z,100091.02
2022-11-04T02:14:50.437Z,100085.42
2022-11-04T02:19:14.571Z,100077.48
2022-11-04T02:21:51.529Z,100085.58
2022-11-04T02:26:47.051Z,100086.96
2022-11-04T02:29:59.772Z,100081.64
2022-11-04T02:35:53.248Z,100076.62
2022-11-04T02:38:51.178Z,100078.47
2022-11-04T02:41:50.411Z,100078.08
2022-11-04T02:44:48.695Z,100072.03
2022-11-04T02:47:25.124Z,100076.08
2022-11-04T02:50:17.027Z,100076.14
2022-11-04T02:54:50.459Z,100074.55
2022-11-04T02:57:25.590Z,100072.80
2022-11-04T03:00:06.510Z,100070.70
2022-11-04T03:01:18.985Z,100074.51
2022-11-04T03:02:35.755Z,100066.69
2022-11-04T03:05:11.198Z,100060.55
2022-11-04T03:08:03.659Z,100062.47
2022-11-04T03:09:15.884Z,100062.74
2022-11-04T03:10:38.312Z,100057.83
2022-11-04T03:13:29.330Z,100052.57
2022-11-04T03:14:45.198Z,100067.04
2022-11-04T03:16:03.620Z,100068.23
2022-11-04T03:17:22.890Z,100066.59
2022-11-04T03:18:57.496Z,100059.38
2022-11-04T03:20:20.075Z,100070.70
2022-11-04T03:21:32.539Z,100068.06
2022-11-04T03:24:09.405Z,100064.88
2022-11-04T03:25:21.756Z,100071.52
2022-11-04T03:28:14.256Z,100074.41
2022-11-04T03:30:55.262Z,100062.23
2022-11-04T03:34:45.673Z,100065.14
2022-11-04T03:35:54.701Z,100077.16
2022-11-04T03:38:23.179Z,100065.09
2022-11-04T03:39:32.568Z,100070.41
2022-11-04T03:40:47.943Z,100069.21
2022-11-04T03:43:22.440Z,100072.19
2022-11-04T03:45:47.707Z,100073.75
2022-11-04T03:47:05.775Z,100078.48
2022-11-04T03:48:15.102Z,100067.89
2022-11-04T03:50:47.171Z,100074.41
2022-11-04T03:51:58.902Z,100079.52
2022-11-04T03:53:10.674Z,100077.11
2022-11-04T03:54:20.808Z,100083.02
2022-11-04T03:57:36.230Z,100083.58
2022-11-04T03:59:13.148Z,100077.98
2022-11-04T04:02:00.127Z,100080.97
2022-11-04T04:06:21.645Z,100075.11
2022-11-04T04:08:57.623Z,100077.58
2022-11-04T04:10:31.431Z,100074.05
2022-11-04T04:12:08.997Z,100067.60
2022-11-04T04:16:09.662Z,100065.67
2022-11-04T04:17:30.331Z,100073.45
2022-11-04T04:20:05.537Z,100074.77
2022-11-04T04:24:15.936Z,100069.67
2022-11-04T04:27:22.204Z,100073.62
2022-11-04T04:29:47.714Z,100067.44
2022-11-04T04:31:00.297Z,100073.90
2022-11-04T04:32:09.538Z,100077.92
2022-11-04T04:33:19.744Z,100079.18
2022-11-04T04:34:31.306Z,100069.91
2022-11-04T04:35:44.538Z,100075.06
2022-11-04T04:37:06.456Z,100079.68
2022-11-04T04:38:44.453Z,100085.29
2022-11-04T04:41:51.038Z,100079.28
2022-11-04T04:45:05.709Z,100078.59
2022-11-04T04:46:15.667Z,100089.14
2022-11-04T04:48:43.448Z,100082.69
2022-11-04T07:05:37.126Z,100150.06
2022-11-04T07:08:02.001Z,100153.59
2022-11-04T07:10:29.621Z,100151.19
2022-11-04T07:12:57.280Z,100145.40
2022-11-04T07:15:27.440Z,100152.87
2022-11-04T07:16:34.359Z,100143.64
2022-11-04T07:19:01.524Z,100131.92
2022-11-04T07:21:29.544Z,100138.25
2022-11-04T07:23:55.351Z,100132.22
2022-11-04T07:26:21.443Z,100138.09
2022-11-04T07:28:46.251Z,100135.03
2022-11-04T07:31:14.008Z,100140.23
2022-11-04T07:33:41.755Z,100137.03
2022-11-04T07:36:07.724Z,100138.64
2022-11-04T07:38:32.971Z,100136.11
2022-11-04T07:40:58.634Z,100134.38
2022-11-04T07:43:24.702Z,100133.66
2022-11-04T07:44:34.506Z,100135.95
2022-11-04T07:47:04.517Z,100132.36
2022-11-04T07:48:13.210Z,100137.23
2022-11-04T07:49:22.451Z,100142.89
2022-11-04T07:51:48.097Z,100138.39
2022-11-04T07:54:13.016Z,100138.16
2022-11-04T07:55:21.755Z,100148.60
2022-11-04T07:57:46.838Z,100142.93
2022-11-04T07:58:56.549Z,100144.92
2022-11-04T08:01:40.924Z,100140.53
2022-11-04T08:02:50.216Z,100142.16
2022-11-04T08:05:14.726Z,100131.02
2022-11-04T08:07:39.598Z,100135.37
2022-11-04T08:10:06.419Z,100136.34
2022-11-04T08:12:35.558Z,100139.74
2022-11-04T08:15:01.965Z,100146.65
2022-11-04T08:17:31.063Z,100142.16
2022-11-04T08:19:57.658Z,100136.66
2022-11-04T08:22:23.199Z,100139.95
2022-11-04T08:24:48.638Z,100143.22
2022-11-04T08:27:15.093Z,100145.11
2022-11-04T08:29:40.145Z,100144.88
2022-11-04T08:32:13.920Z,100148.37
2022-11-04T08:34:41.589Z,100156.16
2022-11-04T08:37:06.369Z,100146.62
2022-11-04T08:39:31.704Z,100149.52
2022-11-04T08:41:57.389Z,100151.59
2022-11-04T08:44:23.359Z,100137.95
2022-11-04T08:46:48.511Z,100147.28
2022-11-04T08:49:19.522Z,100145.63
2022-11-04T08:51:44.499Z,100141.44
2022-11-04T08:54:10.792Z,100142.44
2022-11-04T08:56:38.471Z,100144.66
2022-11-04T08:59:04.135Z,100145.47
2022-11-04T09:01:36.561Z,100145.91
2022-11-04T09:04:00.754Z,100139.53
2022-11-04T09:07:43.712Z,100150.26
2022-11-04T09:10:12.075Z,100143.73
2022-11-04T09:12:37.599Z,100142.54
2022-11-04T09:15:02.648Z,100142.30
2022-11-04T09:16:13.412Z,100151.41
2022-11-04T09:18:38.097Z,100142.48
2022-11-04T09:21:04.665Z,100136.22
2022-11-04T09:23:29.201Z,100139.67
2022-11-04T09:25:53.398Z,100141.69
2022-11-04T09:28:18.336Z,100131.69
2022-11-04T09:30:43.563Z,100132.93
2022-11-04T09:33:07.586Z,100132.66
2022-11-04T09:35:33.188Z,100133.25
2022-11-04T09:38:00.886Z,100132.61
2022-11-04T09:40:27.533Z,100135.55
2022-11-04T09:43:33.239Z,100131.13
2022-11-04T09:46:17.506Z,100130.63
2022-11-04T09:48:48.833Z,100121.27
2022-11-04T09:51:39.695Z,100134.56
2022-11-04T09:54:05.877Z,100133.72
2022-11-04T09:56:43.296Z,100137.61
2022-11-04T09:59:14.475Z,100137.84
2022-11-04T10:01:42.586Z,100128.27
2022-11-04T10:02:55.988Z,100137.12
2022-11-04T10:06:07.735Z,100128.69
2022-11-04T14:54:40.864Z,100098.34
2022-11-04T14:57:18.019Z,100085.78
2022-11-04T14:59:45.784Z,100089.48
2022-11-04T15:06:34.892Z,100092.84
2022-11-04T15:08:56.616Z,100095.09
2022-11-04T15:12:00.230Z,100097.55
2022-11-04T15:14:27.635Z,100093.83
2022-11-04T15:16:58.632Z,100095.22
2022-11-04T15:19:39.087Z,100096.72
2022-11-04T15:22:12.103Z,100097.18
2022-11-04T15:24:52.819Z,100098.06
2022-11-04T15:27:41.273Z,100105.70
2022-11-04T15:31:39.087Z,100099.58
2022-11-04T15:34:14.481Z,100097.45
2022-11-04T15:36:42.156Z,100104.73
2022-11-04T15:37:52.783Z,100101.84
2022-11-04T15:40:38.919Z,100104.63
2022-11-04T15:43:26.939Z,100104.63
2022-11-04T15:45:56.427Z,100098.18
2022-11-04T15:48:37.494Z,100099.46
2022-11-04T15:51:24.003Z,100100.12
2022-11-04T15:53:55.945Z,100107.22
2022-11-04T15:56:28.758Z,100105.94
2022-11-04T15:58:58.920Z,100109.05
2022-11-04T16:01:32.370Z,100106.58
2022-11-04T16:04:28.429Z,100098.08
2022-11-04T16:08:30.049Z,100101.95
2022-11-04T16:11:17.749Z,100101.40
2022-11-04T16:13:46.877Z,100107.95
2022-11-04T16:17:44.472Z,100105.92
2022-11-04T16:20:37.365Z,100100.00
2022-11-04T16:23:04.396Z,100106.33
2022-11-04T16:25:38.351Z,100106.44
2022-11-04T16:28:04.051Z,100112.13
2022-11-04T16:32:22.148Z,100110.73
2022-11-04T16:34:49.728Z,100114.58
2022-11-04T16:37:13.667Z,100111.23
2022-11-04T16:39:38.259Z,100109.50
2022-11-04T16:42:05.949Z,100105.30
2022-11-04T16:45:00.597Z,100110.84
2022-11-04T16:47:30.185Z,100102.47
2022-11-04T16:49:55.302Z,100103.02
2022-11-04T16:52:44.023Z,100107.62
2022-11-04T16:55:09.342Z,100099.56
2022-11-04T16:57:37.331Z,100102.58
2022-11-04T17:00:01.503Z,100110.41
2022-11-04T17:02:42.334Z,100117.50
2022-11-04T17:05:09.800Z,100114.92
2022-11-04T17:07:52.811Z,100116.31
2022-11-04T17:10:23.186Z,100118.55
2022-11-04T17:12:46.940Z,100119.72
2022-11-04T17:15:13.240Z,100113.89
2022-11-04T17:17:37.425Z,100119.58
2022-11-04T17:20:05.325Z,100117.19
2022-11-04T17:22:36.279Z,100109.45
2022-11-04T17:25:00.801Z,100107.72
2022-11-04T17:27:27.118Z,100106.77
2022-11-04T17:29:53.216Z,100111.28
2022-11-04T17:32:18.382Z,100111.08
2022-11-04T17:34:42.773Z,100108.67
2022-11-04T17:37:10.886Z,100115.98
2022-11-04T17:39:35.042Z,100118.66
2022-11-04T17:42:38.327Z,100111.88
2022-11-04T17:45:17.194Z,100119.16
2022-11-04T17:47:55.745Z,100116.79
2022-11-04T17:50:29.639Z,100126.81
2022-11-04T17:52:58.669Z,100125.40
2022-11-04T17:55:27.644Z,100119.65
2022-11-04T17:57:52.822Z,100121.31
2022-11-04T18:00:21.559Z,100127.17
2022-11-04T21:23:22.588Z,100193.91
2022-11-04T21:25:51.403Z,100203.29
2022-11-04T21:28:18.480Z,100215.14
2022-11-04T21:30:51.370Z,100202.58
2022-11-04T21:33:16.549Z,100209.82
2022-11-04T21:35:43.911Z,100201.62
2022-11-04T21:38:10.694Z,100198.13
2022-11-04T21:40:35.623Z,100199.87
2022-11-04T21:43:19.834Z,100197.85
2022-11-04T21:45:44.372Z,100191.73
2022-11-04T21:48:09.495Z,100195.76
2022-11-04T21:50:34.544Z,100196.28
2022-11-04T21:53:20.614Z,100198.62
2022-11-04T21:55:45.858Z,100190.92
2022-11-04T21:58:09.897Z,100189.91
2022-11-04T22:00:34.690Z,100192.46
2022-11-04T22:02:58.447Z,100185.13
2022-11-04T22:05:23.313Z,100182.36
2022-11-04T22:08:08.765Z,100187.34
2022-11-04T22:10:35.119Z,100188.86
2022-11-04T22:12:59.777Z,100182.34
2022-11-04T22:15:44.232Z,100181.12
2022-11-04T22:18:09.142Z,100186.78
2022-11-04T22:20:35.266Z,100194.44
2022-11-04T22:23:01.717Z,100193.56
2022-11-04T22:24:13.274Z,100197.19
2022-11-04T22:26:57.378Z,100209.24
2022-11-04T22:29:22.045Z,100205.47
2022-11-04T22:31:45.885Z,100205.16
2022-11-04T22:34:10.950Z,100198.45
2022-11-04T22:36:35.974Z,100209.51
2022-11-04T22:39:01.704Z,100211.52
2022-11-04T22:41:31.490Z,100211.61
2022-11-04T22:43:56.077Z,100206.42
2022-11-04T22:47:43.791Z,100206.79
2022-11-04T22:50:09.091Z,100210.69
2022-11-04T22:52:32.749Z,100213.13
2022-11-04T22:55:00.048Z,100212.44
2022-11-04T22:57:28.222Z,100224.97
2022-11-04T22:59:54.559Z,100219.70
2022-11-04T23:02:22.640Z,100217.97
2022-11-04T23:04:47.111Z,100216.23
2022-11-04T23:07:18.664Z,100218.91
2022-11-04T23:10:03.942Z,100224.27
2022-11-04T23:13:14.411Z,100227.97
2022-11-04T23:16:18.098Z,100226.60
2022-11-04T23:19:01.831Z,100233.58
2022-11-04T23:21:48.793Z,100227.53
2022-11-04T23:25:05.357Z,100228.55
2022-11-04T23:27:47.782Z,100234.76
2022-11-04T23:30:34.498Z,100241.84
2022-11-04T23:33:17.553Z,100241.17
2022-11-04T23:38:08.918Z,100238.73
2022-11-04T23:40:34.498Z,100247.46
2022-11-04T23:43:17.873Z,100247.37
2022-11-04T23:46:19.487Z,100256.25
2022-11-04T23:49:15.234Z,100243.05
2022-11-04T23:52:19.041Z,100246.66
2022-11-04T23:55:19.980Z,100248.66
2022-11-04T23:58:21.436Z,100255.30
